createdAt,value
2017-10-28T00:01:27.343Z,102367.84
2017-10-28T00:03:58.073Z,102363.41
2017-10-28T00:06:25.659Z,102365.00
2017-10-28T00:08:53.336Z,102362.50
2017-10-28T00:11:21.133Z,102357.09
2017-10-28T00:13:48.763Z,102354.52
2017-10-28T00:16:16.391Z,102345.58
2017-10-28T00:18:44.031Z,102345.49
2017-10-28T00:21:11.647Z,102340.55
2017-10-28T00:23:39.296Z,102343.52
2017-10-28T00:26:07.023Z,102336.03
2017-10-28T00:28:34.640Z,102338.50
2017-10-28T00:31:07.749Z,102342.77
2017-10-28T00:36:42.945Z,102332.35
2017-10-28T00:39:33.153Z,102336.77
2017-10-28T00:45:10.453Z,102331.84
2017-10-28T00:57:33.898Z,102306.73
2017-10-28T01:00:02.386Z,102300.78
2017-10-28T01:02:29.978Z,102296.36
2017-10-28T01:04:57.639Z,102300.73
2017-10-28T01:07:25.256Z,102297.98
2017-10-28T01:09:52.882Z,102296.68
2017-10-28T01:12:20.515Z,102294.81
2017-10-28T01:14:48.182Z,102282.73
2017-10-28T01:17:15.891Z,102285.47
2017-10-28T01:19:43.505Z,102278.11
2017-10-28T01:22:11.131Z,102277.60
2017-10-28T01:24:38.726Z,102284.06
2017-10-28T01:27:06.442Z,102278.09
2017-10-28T01:29:34.603Z,102270.09
2017-10-28T01:32:02.248Z,102271.72
2017-10-28T01:34:29.864Z,102269.03
2017-10-28T01:36:57.498Z,102267.13
2017-10-28T01:39:25.092Z,102258.16
2017-10-28T01:41:52.722Z,102260.58
2017-10-28T01:44:20.325Z,102252.37
2017-10-28T01:46:48.046Z,102241.80
2017-10-28T01:49:15.688Z,102236.90
2017-10-28T01:51:43.307Z,102225.32
2017-10-28T01:54:10.897Z,102217.91
2017-10-28T01:56:38.538Z,102211.28
2017-10-28T01:59:06.141Z,102207.39
2017-10-28T02:01:33.770Z,102200.22
2017-10-28T02:04:01.369Z,102202.23
2017-10-28T02:06:28.994Z,102203.22
2017-10-28T02:08:56.583Z,102198.55
2017-10-28T02:11:25.494Z,102196.63
2017-10-28T02:13:53.396Z,102194.69
2017-10-28T02:16:21.158Z,102188.80
2017-10-28T02:18:49.197Z,102188.97
2017-10-28T02:21:16.963Z,102180.65
2017-10-28T02:23:44.796Z,102172.86
2017-10-28T02:26:12.521Z,102178.57
2017-10-28T02:28:40.215Z,102173.86
2017-10-28T02:31:07.880Z,102163.92
2017-10-28T02:33:35.746Z,102155.70
2017-10-28T02:36:05.933Z,102149.56
2017-10-28T02:38:33.523Z,102147.13
2017-10-28T02:41:01.154Z,102144.02
2017-10-28T02:43:28.754Z,102135.14
2017-10-28T02:45:56.375Z,102137.54
2017-10-28T02:48:24.063Z,102131.39
2017-10-28T02:50:51.789Z,102123.16
2017-10-28T02:53:23.291Z,102135.76
2017-10-28T02:55:51.106Z,102127.18
2017-10-28T02:58:18.809Z,102131.86
2017-10-28T03:00:46.714Z,102124.46
2017-10-28T03:03:14.420Z,102127.53
2017-10-28T03:05:42.292Z,102128.13
2017-10-28T03:08:09.947Z,102116.23
2017-10-28T03:10:37.530Z,102114.66
2017-10-28T03:13:05.148Z,102113.98
2017-10-28T03:15:32.783Z,102106.55
2017-10-28T03:18:00.426Z,102107.89
2017-10-28T03:20:28.027Z,102106.91
2017-10-28T03:22:55.654Z,102106.19
2017-10-28T03:25:23.252Z,102096.05
2017-10-28T03:27:50.915Z,102090.87
2017-10-28T03:30:18.513Z,102083.64
2017-10-28T03:32:46.110Z,102075.13
2017-10-28T03:35:13.734Z,102082.44
2017-10-28T03:37:41.347Z,102070.11
2017-10-28T03:40:09.002Z,102064.56
2017-10-28T03:42:36.586Z,102062.91
2017-10-28T03:45:04.203Z,102055.91
2017-10-28T03:47:31.894Z,102039.37
2017-10-28T03:49:59.496Z,102049.03
2017-10-28T03:52:27.089Z,102040.10
2017-10-28T03:54:54.726Z,102038.64
2017-10-28T03:57:22.327Z,102041.88
2017-10-28T03:59:49.962Z,102035.80
2017-10-28T04:02:17.554Z,102029.70
2017-10-28T04:04:45.174Z,102018.57
2017-10-28T04:07:12.842Z,102015.16
2017-10-28T04:09:40.527Z,101987.45
2017-10-28T04:12:08.113Z,101980.23
2017-10-28T04:14:35.743Z,101970.37
2017-10-28T04:17:03.372Z,101988.30
2017-10-28T04:19:31.002Z,101987.45
2017-10-28T04:21:58.693Z,101973.63
2017-10-28T04:24:26.330Z,101989.36
2017-10-28T04:26:53.927Z,101990.31
2017-10-28T04:29:21.577Z,101985.27
2017-10-28T04:31:49.206Z,101995.98
2017-10-28T04:34:16.919Z,101991.17
2017-10-28T04:36:44.606Z,101988.84
2017-10-28T04:39:12.297Z,101986.79
2017-10-28T04:41:40.240Z,101992.42
2017-10-28T04:44:08.068Z,101982.28
2017-10-28T04:46:35.654Z,101978.38
2017-10-28T04:49:03.277Z,101983.09
2017-10-28T04:51:30.862Z,101972.55
2017-10-28T04:53:58.496Z,101967.30
2017-10-28T04:56:26.099Z,101962.23
2017-10-28T04:58:53.727Z,101968.28
2017-10-28T05:01:21.335Z,101969.55
2017-10-28T05:03:49.074Z,101973.80
2017-10-28T05:06:16.682Z,101974.20
2017-10-28T05:08:44.274Z,101959.23
2017-10-28T05:11:11.926Z,101959.34
2017-10-28T05:13:39.559Z,101947.76
2017-10-28T05:16:07.143Z,101943.48
2017-10-28T05:18:34.768Z,101931.05
2017-10-28T05:21:02.392Z,101928.23
2017-10-28T05:23:29.980Z,101922.58
2017-10-28T05:25:57.650Z,101924.41
2017-10-28T05:28:25.255Z,101903.84
2017-10-28T05:30:52.888Z,101889.11
2017-10-28T05:33:20.494Z,101881.68
2017-10-28T05:35:48.129Z,101875.54
2017-10-28T05:38:15.834Z,101883.91
2017-10-28T05:40:43.451Z,101879.25
2017-10-28T05:43:11.039Z,101880.05
2017-10-28T05:45:38.699Z,101881.55
2017-10-28T05:48:06.314Z,101866.27
2017-10-28T05:50:33.949Z,101855.38
2017-10-28T05:53:01.547Z,101851.05
2017-10-28T05:55:29.162Z,101847.99
2017-10-28T05:57:56.771Z,101861.03
2017-10-28T06:00:24.435Z,101865.61
2017-10-28T06:02:52.027Z,101866.77
2017-10-28T06:05:19.610Z,101874.41
2017-10-28T06:07:47.267Z,101876.62
2017-10-28T06:10:14.861Z,101870.70
2017-10-28T06:12:42.483Z,101879.30
2017-10-28T06:15:10.083Z,101869.81
2017-10-28T06:17:37.717Z,101870.61
2017-10-28T06:20:05.319Z,101872.42
2017-10-28T06:22:32.938Z,101875.86
2017-10-28T06:25:00.545Z,101866.83
2017-10-28T06:27:28.175Z,101859.27
2017-10-28T06:29:55.774Z,101855.72
2017-10-28T06:32:23.387Z,101839.02
2017-10-28T06:34:50.990Z,101832.25
2017-10-28T06:37:18.635Z,101830.30
2017-10-28T06:39:46.269Z,101829.00
2017-10-28T06:42:13.875Z,101828.29
2017-10-28T06:44:41.501Z,101825.17
2017-10-28T06:47:09.127Z,101819.83
2017-10-28T06:49:36.719Z,101828.83
2017-10-28T06:52:04.310Z,101828.55
2017-10-28T06:54:31.952Z,101840.58
2017-10-28T06:56:59.556Z,101841.69
2017-10-28T06:59:27.570Z,101845.82
2017-10-28T07:01:55.279Z,101859.64
2017-10-28T07:04:22.905Z,101855.67
2017-10-28T07:06:50.511Z,101850.83
2017-10-28T07:09:18.164Z,101847.23
2017-10-28T07:11:45.738Z,101844.97
2017-10-28T07:14:13.360Z,101839.61
2017-10-28T07:16:40.999Z,101848.09
2017-10-28T07:19:08.646Z,101848.94
2017-10-28T07:21:36.248Z,101832.94
2017-10-28T07:24:03.884Z,101831.75
2017-10-28T07:26:31.491Z,101835.50
2017-10-28T07:28:59.138Z,101840.97
2017-10-28T07:31:26.750Z,101835.15
2017-10-28T07:33:54.387Z,101831.82
2017-10-28T07:36:21.980Z,101839.63
2017-10-28T07:38:49.607Z,101836.19
2017-10-28T07:41:17.201Z,101832.19
2017-10-28T07:43:44.834Z,101839.70
2017-10-28T07:46:12.431Z,101846.09
2017-10-28T07:48:40.070Z,101856.34
2017-10-28T07:51:07.675Z,101850.22
2017-10-28T07:53:35.318Z,101860.37
2017-10-28T07:56:02.907Z,101869.97
2017-10-28T07:58:30.538Z,101871.66
2017-10-28T08:00:58.136Z,101880.73
2017-10-28T08:03:25.762Z,101867.83
2017-10-28T08:05:53.394Z,101857.47
2017-10-28T08:08:21.022Z,101850.95
2017-10-28T08:10:48.623Z,101855.19
2017-10-28T08:13:16.255Z,101857.30
2017-10-28T08:15:43.856Z,101845.49
2017-10-28T08:18:11.503Z,101816.04
2017-10-28T08:20:39.108Z,101791.11
2017-10-28T08:23:06.846Z,101771.83
2017-10-28T08:25:34.467Z,101777.78
2017-10-28T08:28:02.164Z,101775.34
2017-10-28T08:30:29.805Z,101783.88
2017-10-28T08:32:57.403Z,101790.52
2017-10-28T08:35:25.028Z,101786.63
2017-10-28T08:37:52.631Z,101795.58
2017-10-28T08:40:20.273Z,101802.45
2017-10-28T08:42:47.895Z,101793.50
2017-10-28T08:45:15.524Z,101799.95
2017-10-28T08:47:43.132Z,101819.02
2017-10-28T08:50:10.778Z,101822.44
2017-10-28T08:52:38.440Z,101805.20
2017-10-28T08:55:06.096Z,101800.64
2017-10-28T08:57:33.710Z,101803.14
2017-10-28T09:00:01.357Z,101797.52
2017-10-28T09:02:28.958Z,101800.77
2017-10-28T09:04:56.730Z,101785.97
2017-10-28T09:07:24.299Z,101774.87
2017-10-28T09:09:51.894Z,101773.85
2017-10-28T09:12:19.589Z,101781.50
2017-10-28T09:14:47.211Z,101776.17
2017-10-28T09:17:14.822Z,101765.70
2017-10-28T09:19:42.431Z,101776.30
2017-10-28T09:22:10.059Z,101775.37
2017-10-28T09:24:37.675Z,101768.91
2017-10-28T09:27:05.316Z,101764.97
2017-10-28T09:29:32.927Z,101772.49
2017-10-28T09:32:00.611Z,101764.14
2017-10-28T09:34:28.245Z,101760.45
2017-10-28T09:36:55.931Z,101756.72
2017-10-28T09:39:23.563Z,101748.33
2017-10-28T09:41:51.194Z,101741.05
2017-10-28T09:44:18.822Z,101737.84
2017-10-28T09:46:46.480Z,101741.20
2017-10-28T09:49:14.114Z,101740.03
2017-10-28T09:51:41.817Z,101732.18
2017-10-28T09:54:09.459Z,101735.34
2017-10-28T09:56:37.160Z,101739.35
2017-10-28T09:59:04.758Z,101735.10
2017-10-28T10:01:32.355Z,101735.22
2017-10-28T10:03:59.993Z,101729.91
2017-10-28T10:06:27.591Z,101726.14
2017-10-28T10:08:55.282Z,101723.63
2017-10-28T10:11:22.900Z,101717.48
2017-10-28T10:13:50.551Z,101726.55
2017-10-28T10:16:18.138Z,101715.00
2017-10-28T10:18:45.770Z,101705.39
2017-10-28T10:21:13.443Z,101702.59
2017-10-28T10:23:41.175Z,101695.80
2017-10-28T10:26:08.766Z,101697.50
2017-10-28T10:28:36.379Z,101711.27
2017-10-28T10:31:04.035Z,101716.09
2017-10-28T10:33:31.719Z,101703.86
2017-10-28T10:35:59.384Z,101700.30
2017-10-28T10:38:26.997Z,101701.75
2017-10-28T10:40:54.628Z,101696.56
2017-10-28T10:43:22.251Z,101703.09
2017-10-28T10:45:49.957Z,101699.31
2017-10-28T10:48:17.585Z,101702.08
2017-10-28T10:50:45.339Z,101711.37
2017-10-28T10:53:12.971Z,101708.28
2017-10-28T10:55:40.614Z,101693.36
2017-10-28T10:58:08.264Z,101682.61
2017-10-28T11:00:35.919Z,101676.95
2017-10-28T11:03:03.484Z,101667.08
2017-10-28T11:05:31.118Z,101658.03
2017-10-28T11:07:58.812Z,101650.36
2017-10-28T11:10:26.434Z,101660.50
2017-10-28T11:12:54.048Z,101645.37
2017-10-28T11:15:21.757Z,101638.91
2017-10-28T11:17:49.443Z,101628.45
2017-10-28T11:20:17.141Z,101612.58
2017-10-28T11:22:44.742Z,101605.02
2017-10-28T11:25:12.386Z,101604.14
2017-10-28T11:27:39.999Z,101597.26
2017-10-28T11:30:07.635Z,101587.29
2017-10-28T11:32:35.229Z,101586.36
2017-10-28T11:35:02.888Z,101583.80
2017-10-28T11:37:30.501Z,101584.16
2017-10-28T11:39:58.177Z,101584.33
2017-10-28T11:42:25.896Z,101595.55
2017-10-28T11:44:53.610Z,101591.06
2017-10-28T11:47:21.253Z,101590.19
2017-10-28T11:49:48.887Z,101590.91
2017-10-28T11:52:16.517Z,101585.42
2017-10-28T11:54:44.159Z,101572.44
2017-10-28T11:57:11.828Z,101550.61
2017-10-28T11:59:39.599Z,101549.98
2017-10-28T12:02:07.228Z,101541.39
2017-10-28T12:04:34.897Z,101539.05
2017-10-28T12:07:02.557Z,101523.30
2017-10-28T12:09:30.234Z,101517.80
2017-10-28T12:11:57.914Z,101534.27
2017-10-28T12:14:25.540Z,101518.59
2017-10-28T12:16:53.204Z,101521.16
2017-10-28T12:19:20.845Z,101511.05
2017-10-28T12:21:48.487Z,101508.84
2017-10-28T12:24:16.107Z,101512.45
2017-10-28T12:26:43.744Z,101513.11
2017-10-28T12:29:11.389Z,101510.64
2017-10-28T12:31:39.036Z,101512.83
2017-10-28T12:34:06.639Z,101508.72
2017-10-28T12:36:34.292Z,101501.17
2017-10-28T12:39:01.906Z,101493.09
2017-10-28T12:41:29.566Z,101486.71
2017-10-28T12:43:57.179Z,101495.39
2017-10-28T12:46:24.823Z,101485.88
2017-10-28T12:48:52.418Z,101480.09
2017-10-28T12:51:20.176Z,101483.61
2017-10-28T12:53:47.776Z,101471.76
2017-10-28T12:56:15.420Z,101472.27
2017-10-28T12:58:43.021Z,101466.81
2017-10-28T13:01:10.793Z,101462.16
2017-10-28T13:03:38.459Z,101453.98
2017-10-28T13:06:06.086Z,101450.77
2017-10-28T13:08:33.708Z,101436.64
2017-10-28T13:11:01.343Z,101429.81
2017-10-28T13:13:28.952Z,101417.03
2017-10-28T13:15:56.625Z,101421.47
2017-10-28T13:18:24.229Z,101414.47
2017-10-28T13:20:51.883Z,101398.25
2017-10-28T13:23:19.526Z,101410.65
2017-10-28T13:25:47.150Z,101409.97
2017-10-28T13:28:14.807Z,101403.18
2017-10-28T13:30:42.454Z,101392.87
2017-10-28T13:33:10.179Z,101401.84
2017-10-28T13:35:37.788Z,101409.41
2017-10-28T13:38:05.465Z,101398.39
2017-10-28T13:40:33.113Z,101398.33
2017-10-28T13:43:00.788Z,101393.18
2017-10-28T13:45:28.399Z,101394.06
2017-10-28T13:47:56.048Z,101395.45
2017-10-28T13:50:23.688Z,101398.00
2017-10-28T13:52:51.340Z,101385.06
2017-10-28T13:55:18.970Z,101393.81
2017-10-28T13:57:46.648Z,101383.75
2017-10-28T14:00:15.240Z,101385.64
2017-10-28T14:02:42.971Z,101375.58
2017-10-28T14:05:10.610Z,101377.75
2017-10-28T14:07:38.267Z,101368.75
2017-10-28T14:10:05.933Z,101369.61
2017-10-28T14:12:33.698Z,101368.91
2017-10-28T14:15:01.455Z,101346.75
2017-10-28T14:17:29.284Z,101346.88
2017-10-28T14:19:57.117Z,101328.11
2017-10-28T14:22:25.088Z,101327.44
2017-10-28T14:24:52.703Z,101326.00
2017-10-28T14:27:20.408Z,101324.98
2017-10-28T14:29:48.098Z,101313.16
2017-10-28T14:32:15.735Z,101304.03
2017-10-28T14:34:43.324Z,101305.95
2017-10-28T14:37:10.965Z,101304.73
2017-10-28T14:39:38.567Z,101304.70
2017-10-28T14:42:06.302Z,101296.66
2017-10-28T14:44:33.989Z,101299.34
2017-10-28T14:47:01.602Z,101313.03
2017-10-28T14:49:29.370Z,101309.53
2017-10-28T14:51:56.999Z,101298.28
2017-10-28T14:54:24.627Z,101298.45
2017-10-28T14:56:52.297Z,101299.88
2017-10-28T14:59:19.923Z,101302.82
2017-10-28T15:01:47.601Z,101311.86
2017-10-28T15:04:15.222Z,101301.67
2017-10-28T15:06:42.884Z,101302.21
2017-10-28T15:09:10.538Z,101301.80
2017-10-28T15:11:38.148Z,101292.83
2017-10-28T15:14:05.843Z,101298.45
2017-10-28T15:16:33.470Z,101305.98
2017-10-28T15:19:01.111Z,101303.14
2017-10-28T15:21:28.719Z,101299.41
2017-10-28T15:23:56.376Z,101287.72
2017-10-28T15:26:23.978Z,101283.72
2017-10-28T15:28:51.635Z,101274.63
2017-10-28T15:31:19.275Z,101271.94
2017-10-28T15:33:46.922Z,101261.49
2017-10-28T15:36:14.535Z,101252.88
2017-10-28T15:38:42.176Z,101247.51
2017-10-28T15:41:09.812Z,101245.38
2017-10-28T15:43:37.455Z,101238.00
2017-10-28T15:46:05.063Z,101228.61
2017-10-28T15:48:32.696Z,101222.86
2017-10-28T15:51:00.302Z,101214.52
2017-10-28T15:53:27.952Z,101213.63
2017-10-28T15:55:55.569Z,101210.91
2017-10-28T15:58:23.231Z,101217.36
2017-10-28T16:00:50.845Z,101215.77
2017-10-28T16:03:18.481Z,101203.28
2017-10-28T16:05:46.095Z,101205.67
2017-10-28T16:08:13.795Z,101208.67
2017-10-28T16:10:41.434Z,101199.02
2017-10-28T16:13:09.146Z,101197.66
2017-10-28T16:15:36.755Z,101208.00
2017-10-28T16:18:04.394Z,101198.73
2017-10-28T16:20:32.015Z,101208.95
2017-10-28T16:22:59.662Z,101202.64
2017-10-28T16:25:27.268Z,101200.47
2017-10-28T16:27:54.903Z,101179.16
2017-10-28T16:30:22.503Z,101185.33
2017-10-28T16:32:50.158Z,101198.30
2017-10-28T16:35:17.760Z,101193.30
2017-10-28T16:37:45.378Z,101192.88
2017-10-28T16:40:13.013Z,101192.73
2017-10-28T16:42:40.634Z,101187.23
2017-10-28T16:45:08.267Z,101177.98
2017-10-28T16:47:35.882Z,101184.24
2017-10-28T16:50:03.525Z,101176.02
2017-10-28T16:52:31.132Z,101165.13
2017-10-28T16:54:58.769Z,101180.27
2017-10-28T16:57:26.375Z,101164.72
2017-10-28T16:59:54.023Z,101162.70
2017-10-28T17:02:21.679Z,101154.28
2017-10-28T17:04:49.367Z,101143.66
2017-10-28T17:07:16.970Z,101136.23
2017-10-28T17:09:44.598Z,101136.61
2017-10-28T17:12:12.279Z,101135.37
2017-10-28T17:14:39.900Z,101123.95
2017-10-28T17:17:07.513Z,101128.36
2017-10-28T17:19:35.170Z,101121.66
2017-10-28T17:22:02.763Z,101114.86
2017-10-28T17:24:30.404Z,101110.42
2017-10-28T17:26:58.004Z,101100.47
2017-10-28T17:29:25.699Z,101093.77
2017-10-28T17:31:53.419Z,101089.88
2017-10-28T17:34:21.066Z,101089.21
2017-10-28T17:36:48.640Z,101086.14
2017-10-28T17:39:16.374Z,101092.30
2017-10-28T17:41:43.985Z,101094.98
2017-10-28T17:44:11.649Z,101086.45
2017-10-28T17:46:39.251Z,101092.20
2017-10-28T17:49:06.901Z,101076.53
2017-10-28T17:51:34.495Z,101076.73
2017-10-28T17:54:02.147Z,101085.13
2017-10-28T17:56:29.732Z,101080.05
2017-10-28T17:58:57.369Z,101074.17
2017-10-28T18:01:25.038Z,101066.98
2017-10-28T18:03:52.683Z,101088.69
2017-10-28T18:06:20.279Z,101076.39
2017-10-28T18:08:47.935Z,101069.14
2017-10-28T18:11:15.630Z,101066.20
2017-10-28T18:13:43.263Z,101057.55
2017-10-28T18:16:10.907Z,101057.98
2017-10-28T18:18:38.534Z,101053.70
2017-10-28T18:21:06.135Z,101046.33
2017-10-28T18:23:33.808Z,101027.66
2017-10-28T18:26:01.455Z,101056.80
2017-10-28T18:28:29.087Z,101041.21
2017-10-28T18:30:56.713Z,101028.22
2017-10-28T18:33:24.367Z,101039.89
2017-10-28T18:35:51.967Z,101040.72
2017-10-28T18:38:19.605Z,101031.59
2017-10-28T18:40:47.210Z,101019.95
2017-10-28T18:43:14.847Z,101025.22
2017-10-28T18:45:42.472Z,101038.22
2017-10-28T18:48:10.120Z,101006.46
2017-10-28T18:50:37.710Z,101014.51
2017-10-28T18:53:05.354Z,100994.92
2017-10-28T18:55:33.006Z,100997.32
2017-10-28T18:58:00.693Z,100984.20
2017-10-28T19:00:28.292Z,100981.50
2017-10-28T19:02:55.929Z,100971.20
2017-10-28T19:05:23.527Z,100979.66
2017-10-28T19:07:51.170Z,100972.44
2017-10-28T19:10:18.793Z,100972.17
2017-10-28T19:12:46.438Z,100962.94
2017-10-28T19:15:14.072Z,100961.58
2017-10-28T19:17:41.728Z,100938.90
2017-10-28T19:20:09.360Z,100941.72
2017-10-28T19:22:37.004Z,100937.30
2017-10-28T19:25:04.639Z,100926.85
2017-10-28T19:27:32.268Z,100926.57
2017-10-28T19:29:59.967Z,100915.59
2017-10-28T19:32:27.619Z,100906.99
2017-10-28T19:34:55.225Z,100899.47
2017-10-28T19:37:22.890Z,100903.62
2017-10-28T19:39:50.499Z,100896.93
2017-10-28T19:42:18.142Z,100885.00
2017-10-28T19:44:45.755Z,100883.67
2017-10-28T19:47:13.403Z,100887.16
2017-10-28T19:49:41.028Z,100883.42
2017-10-28T19:52:08.699Z,100870.66
2017-10-28T19:54:36.317Z,100872.41
2017-10-28T19:57:03.983Z,100870.15
2017-10-28T19:59:31.599Z,100861.00
2017-10-28T20:01:59.232Z,100849.34
2017-10-28T20:04:26.841Z,100843.70
2017-10-28T20:06:54.487Z,100843.56
2017-10-28T20:09:22.119Z,100841.84
2017-10-28T20:11:49.750Z,100835.52
2017-10-28T20:14:17.363Z,100824.65
2017-10-28T20:16:45.007Z,100811.91
2017-10-28T20:19:12.766Z,100818.86
2017-10-28T20:21:40.503Z,100819.00
2017-10-28T20:24:08.117Z,100794.05
2017-10-28T20:26:35.796Z,100784.10
2017-10-28T20:29:03.421Z,100774.57
2017-10-28T20:31:31.094Z,100783.59
2017-10-28T20:33:58.734Z,100772.30
2017-10-28T20:36:26.375Z,100770.14
2017-10-28T20:38:54.024Z,100765.05
2017-10-28T20:41:21.678Z,100754.16
2017-10-28T20:43:49.361Z,100749.34
2017-10-28T20:46:16.986Z,100744.38
2017-10-28T20:48:44.619Z,100729.48
2017-10-28T20:51:12.300Z,100732.17
2017-10-28T20:53:39.952Z,100725.45
2017-10-28T20:56:07.556Z,100722.36
2017-10-28T20:58:35.255Z,100714.44
2017-10-28T21:01:02.878Z,100718.20
2017-10-28T21:03:30.563Z,100719.67
2017-10-28T21:05:58.196Z,100718.98
2017-10-28T21:08:25.842Z,100705.42
2017-10-28T21:10:53.468Z,100707.17
2017-10-28T21:13:21.115Z,100709.04
2017-10-28T21:15:48.750Z,100702.88
2017-10-28T21:18:16.516Z,100688.61
2017-10-28T21:20:44.152Z,100672.36
2017-10-28T21:23:11.796Z,100677.46
2017-10-28T21:25:39.423Z,100676.01
2017-10-28T21:28:07.091Z,100673.08
2017-10-28T21:30:34.707Z,100677.48
2017-10-28T21:33:02.362Z,100674.79
2017-10-28T21:35:29.974Z,100658.67
2017-10-28T21:37:57.627Z,100656.26
2017-10-28T21:40:25.222Z,100658.25
2017-10-28T21:42:53.000Z,100661.08
2017-10-28T21:45:20.623Z,100647.78
2017-10-28T21:47:48.238Z,100659.88
2017-10-28T21:50:15.879Z,100637.17
2017-10-28T21:52:43.482Z,100634.90
2017-10-28T21:55:11.126Z,100635.42
2017-10-28T21:57:38.739Z,100629.77
2017-10-28T22:00:06.383Z,100622.54
2017-10-28T22:02:34.005Z,100604.80
2017-10-28T22:05:01.675Z,100606.55
2017-10-28T22:07:29.299Z,100595.66
2017-10-28T22:09:57.030Z,100594.17
2017-10-28T22:12:24.666Z,100589.17
2017-10-28T22:14:52.323Z,100575.21
2017-10-28T22:17:19.935Z,100580.69
2017-10-28T22:19:47.637Z,100565.52
2017-10-28T22:22:15.233Z,100553.92
2017-10-28T22:24:42.883Z,100543.29
2017-10-28T22:27:10.550Z,100543.23
2017-10-28T22:29:38.226Z,100527.22
2017-10-28T22:32:05.843Z,100549.13
2017-10-28T22:34:33.508Z,100520.59
2017-10-28T22:37:01.136Z,100526.19
2017-10-28T22:39:28.750Z,100522.39
2017-10-28T22:41:56.394Z,100518.58
2017-10-28T22:44:24.027Z,100522.31
2017-10-28T22:46:51.652Z,100520.80
2017-10-28T22:49:19.287Z,100521.34
2017-10-28T22:51:46.912Z,100508.97
2017-10-28T22:54:14.550Z,100514.17
2017-10-28T22:56:42.186Z,100497.23
2017-10-28T22:59:09.874Z,100498.28
2017-10-28T23:01:37.518Z,100495.16
2017-10-28T23:04:05.158Z,100504.69
2017-10-28T23:06:32.791Z,100472.93
2017-10-28T23:09:00.434Z,100478.97
2017-10-28T23:11:28.050Z,100479.64
2017-10-28T23:13:55.781Z,100473.59
2017-10-28T23:16:23.485Z,100477.31
2017-10-28T23:18:51.100Z,100475.11
2017-10-28T23:21:18.743Z,100465.40
2017-10-28T23:23:46.388Z,100458.09
2017-10-28T23:26:14.094Z,100458.77
2017-10-28T23:28:41.757Z,100459.27
2017-10-28T23:31:09.358Z,100456.84
2017-10-28T23:33:37.002Z,100449.98
2017-10-28T23:36:04.610Z,100450.72
2017-10-28T23:38:32.222Z,100447.33
2017-10-28T23:40:59.867Z,100433.34
2017-10-28T23:43:27.488Z,100434.79
2017-10-28T23:45:56.266Z,100431.40
2017-10-28T23:48:23.896Z,100432.08
2017-10-28T23:50:51.571Z,100414.41
2017-10-28T23:53:19.192Z,100411.42
2017-10-28T23:55:46.852Z,100400.10
2017-10-28T23:58:14.472Z,100391.56
